BAW8648 LGKR-LIRN
Flight info
| Callsign | BAW8648 |
|---|---|
| Flight time | N/A |
| Altitude | 36000 |
| Route | TIGRA2F TIGRA L995 EKTOL EKTOL1A |
| Aircraft | A320/M-SDE3FGIJ1KRWXY/SB1 |
Departure
| Time | N/A |
|---|---|
| Airport | Corfu Ioannis Kapodistrias International Airport (LGKR) |
Arrival
| Time | 2026-04-29 04:15 |
|---|---|
| Airport | Naples International Airport (LIRN) |
| Time | Latitude | Longitude | Altitude | Speed | Heading |
|---|---|---|---|---|---|
| 2026-04-29 03:48 | 40.74963 | 17.25416 | 32077 ft | 422 kts | 284° |
| 2026-04-29 03:48 | 40.75655 | 17.21655 | 32077 ft | 422 kts | 284° |
| 2026-04-29 03:48 | 40.77026 | 17.14126 | 32079 ft | 422 kts | 284° |
| 2026-04-29 03:49 | 40.78394 | 17.06590 | 32077 ft | 422 kts | 284° |
| 2026-04-29 03:49 | 40.79761 | 16.99056 | 32077 ft | 422 kts | 284° |
| 2026-04-29 03:50 | 40.81126 | 16.91524 | 32078 ft | 422 kts | 284° |
| 2026-04-29 03:50 | 40.82483 | 16.83984 | 32078 ft | 422 kts | 284° |
| 2026-04-29 03:51 | 40.83819 | 16.76439 | 32078 ft | 422 kts | 284° |
| 2026-04-29 03:51 | 40.85133 | 16.68878 | 32075 ft | 422 kts | 283° |
| 2026-04-29 03:52 | 40.86436 | 16.61374 | 32071 ft | 422 kts | 283° |
| 2026-04-29 03:52 | 40.87756 | 16.53818 | 32066 ft | 422 kts | 283° |
| 2026-04-29 03:53 | 40.89067 | 16.46247 | 31764 ft | 423 kts | 283° |
| 2026-04-29 03:53 | 40.89722 | 16.42457 | 31515 ft | 424 kts | 283° |
| 2026-04-29 03:53 | 40.90378 | 16.38655 | 31265 ft | 424 kts | 283° |
| 2026-04-29 03:54 | 40.91033 | 16.34852 | 31015 ft | 425 kts | 283° |
| 2026-04-29 03:54 | 40.91685 | 16.31049 | 30764 ft | 424 kts | 283° |
| 2026-04-29 03:54 | 40.92338 | 16.27251 | 30513 ft | 422 kts | 283° |
| 2026-04-29 03:54 | 40.92988 | 16.23475 | 30264 ft | 421 kts | 283° |
| 2026-04-29 03:55 | 40.93633 | 16.19718 | 29889 ft | 416 kts | 283° |
| 2026-04-29 03:55 | 40.94266 | 16.15997 | 29347 ft | 412 kts | 283° |
| 2026-04-29 03:55 | 40.94893 | 16.12319 | 28807 ft | 409 kts | 283° |
| 2026-04-29 03:55 | 40.95516 | 16.08663 | 28259 ft | 406 kts | 283° |
| 2026-04-29 03:56 | 40.96135 | 16.05035 | 27707 ft | 403 kts | 283° |
| 2026-04-29 03:56 | 40.96750 | 16.01430 | 27170 ft | 400 kts | 283° |
| 2026-04-29 03:56 | 40.97360 | 15.97848 | 26632 ft | 397 kts | 283° |
| 2026-04-29 03:56 | 40.97964 | 15.94297 | 26106 ft | 394 kts | 283° |
| 2026-04-29 03:57 | 40.98561 | 15.90771 | 25586 ft | 391 kts | 283° |
| 2026-04-29 03:57 | 40.99152 | 15.87271 | 25081 ft | 388 kts | 283° |
| 2026-04-29 03:57 | 40.99740 | 15.83792 | 24583 ft | 385 kts | 283° |
| 2026-04-29 03:57 | 41.00322 | 15.80339 | 24122 ft | 383 kts | 283° |
| 2026-04-29 03:58 | 41.00898 | 15.76910 | 23672 ft | 380 kts | 283° |
| 2026-04-29 03:58 | 41.01464 | 15.73509 | 23217 ft | 377 kts | 283° |
| 2026-04-29 03:58 | 41.02022 | 15.70142 | 22770 ft | 373 kts | 283° |
| 2026-04-29 03:58 | 41.02576 | 15.66799 | 22315 ft | 370 kts | 283° |
| 2026-04-29 03:59 | 41.03130 | 15.63478 | 21848 ft | 368 kts | 283° |
| 2026-04-29 03:59 | 41.03680 | 15.60194 | 21396 ft | 365 kts | 283° |
| 2026-04-29 03:59 | 41.04230 | 15.56923 | 20953 ft | 361 kts | 283° |
| 2026-04-29 03:59 | 41.04773 | 15.53687 | 20488 ft | 358 kts | 283° |
| 2026-04-29 04:00 | 41.05307 | 15.50477 | 20015 ft | 355 kts | 283° |
| 2026-04-29 04:00 | 41.05832 | 15.47296 | 19535 ft | 353 kts | 283° |
| 2026-04-29 04:00 | 41.06351 | 15.44129 | 19057 ft | 350 kts | 283° |
| 2026-04-29 04:00 | 41.06868 | 15.40978 | 18569 ft | 349 kts | 282° |
| 2026-04-29 04:01 | 41.07383 | 15.37846 | 18083 ft | 347 kts | 283° |
| 2026-04-29 04:01 | 41.07894 | 15.34754 | 17833 ft | 338 kts | 282° |
| 2026-04-29 04:01 | 41.08385 | 15.31767 | 17703 ft | 326 kts | 282° |
| 2026-04-29 04:01 | 41.08858 | 15.28862 | 17439 ft | 320 kts | 282° |
| 2026-04-29 04:02 | 41.09324 | 15.25999 | 17092 ft | 317 kts | 282° |
| 2026-04-29 04:02 | 41.09790 | 15.23151 | 16713 ft | 315 kts | 282° |
| 2026-04-29 04:02 | 41.10030 | 15.20277 | 16308 ft | 312 kts | 269° |
| 2026-04-29 04:02 | 41.09754 | 15.17444 | 15656 ft | 310 kts | 256° |
| 2026-04-29 04:03 | 41.08965 | 15.14798 | 14997 ft | 309 kts | 242° |
| 2026-04-29 04:03 | 41.07734 | 15.12481 | 14341 ft | 307 kts | 230° |
| 2026-04-29 04:03 | 41.06339 | 15.10349 | 13683 ft | 305 kts | 230° |
| 2026-04-29 04:03 | 41.05421 | 15.08945 | 13259 ft | 304 kts | 230° |
| 2026-04-29 04:04 | 41.04049 | 15.06836 | 12652 ft | 300 kts | 230° |
| 2026-04-29 04:04 | 41.02699 | 15.04758 | 12106 ft | 295 kts | 230° |
| 2026-04-29 04:04 | 41.01515 | 15.02607 | 11646 ft | 285 kts | 244° |
| 2026-04-29 04:04 | 41.00881 | 15.00164 | 11203 ft | 278 kts | 261° |
| 2026-04-29 04:05 | 41.00833 | 14.97649 | 10864 ft | 273 kts | 277° |
| 2026-04-29 04:05 | 41.01355 | 14.95174 | 10632 ft | 285 kts | 294° |
| 2026-04-29 04:05 | 41.02353 | 14.92929 | 10383 ft | 282 kts | 302° |
| 2026-04-29 04:05 | 41.03399 | 14.90759 | 10126 ft | 277 kts | 301° |
| 2026-04-29 04:06 | 41.04538 | 14.88718 | 9869 ft | 275 kts | 313° |
| 2026-04-29 04:06 | 41.06000 | 14.87118 | 9619 ft | 273 kts | 327° |
| 2026-04-29 04:06 | 41.07610 | 14.85813 | 9366 ft | 270 kts | 327° |
| 2026-04-29 04:06 | 41.09203 | 14.84515 | 9118 ft | 268 kts | 327° |
| 2026-04-29 04:07 | 41.10647 | 14.83015 | 8874 ft | 262 kts | 307° |
| 2026-04-29 04:07 | 41.11459 | 14.80918 | 8637 ft | 255 kts | 282° |
| 2026-04-29 04:07 | 41.11500 | 14.78587 | 8410 ft | 255 kts | 256° |
| 2026-04-29 04:07 | 41.10801 | 14.76445 | 8175 ft | 255 kts | 237° |
| 2026-04-29 04:08 | 41.09859 | 14.74455 | 7947 ft | 255 kts | 237° |
| 2026-04-29 04:08 | 41.08923 | 14.72470 | 7718 ft | 254 kts | 238° |
| 2026-04-29 04:08 | 41.07988 | 14.70483 | 7485 ft | 254 kts | 238° |
| 2026-04-29 04:08 | 41.07060 | 14.68500 | 7260 ft | 253 kts | 238° |
| 2026-04-29 04:09 | 41.06138 | 14.66518 | 7069 ft | 252 kts | 238° |
| 2026-04-29 04:09 | 41.05216 | 14.64537 | 6761 ft | 254 kts | 238° |
| 2026-04-29 04:09 | 41.04282 | 14.62533 | 6383 ft | 257 kts | 238° |
| 2026-04-29 04:09 | 41.03338 | 14.60508 | 5994 ft | 260 kts | 238° |
| 2026-04-29 04:10 | 41.02386 | 14.58470 | 5605 ft | 258 kts | 238° |
| 2026-04-29 04:10 | 41.01461 | 14.56487 | 5236 ft | 248 kts | 238° |
| 2026-04-29 04:10 | 41.00567 | 14.54576 | 4875 ft | 241 kts | 238° |
| 2026-04-29 04:10 | 40.99683 | 14.52682 | 4518 ft | 240 kts | 238° |
| 2026-04-29 04:11 | 40.98820 | 14.50837 | 4171 ft | 232 kts | 238° |
| 2026-04-29 04:11 | 40.97980 | 14.49043 | 3842 ft | 228 kts | 238° |
| 2026-04-29 04:11 | 40.97133 | 14.47236 | 3506 ft | 229 kts | 237° |
| 2026-04-29 04:11 | 40.96295 | 14.45446 | 3158 ft | 228 kts | 238° |
| 2026-04-29 04:12 | 40.95466 | 14.43678 | 2825 ft | 224 kts | 238° |
| 2026-04-29 04:12 | 40.94653 | 14.41946 | 2497 ft | 219 kts | 237° |
| 2026-04-29 04:12 | 40.93858 | 14.40252 | 2170 ft | 215 kts | 238° |
| 2026-04-29 04:12 | 40.93078 | 14.38591 | 1865 ft | 211 kts | 238° |
| 2026-04-29 04:13 | 40.92315 | 14.36967 | 1558 ft | 204 kts | 238° |
| 2026-04-29 04:13 | 40.91596 | 14.35438 | 1289 ft | 187 kts | 238° |
| 2026-04-29 04:13 | 40.90940 | 14.34044 | 1015 ft | 171 kts | 238° |
| 2026-04-29 04:13 | 40.90348 | 14.32788 | 771 ft | 152 kts | 238° |
| 2026-04-29 04:14 | 40.89818 | 14.31661 | 562 ft | 144 kts | 239° |
| 2026-04-29 04:14 | 40.89287 | 14.30532 | 329 ft | 140 kts | 238° |
| 2026-04-29 04:14 | 40.88783 | 14.29458 | 258 ft | 128 kts | 238° |
| 2026-04-29 04:14 | 40.88394 | 14.28634 | 283 ft | 81 kts | 238° |
| 2026-04-29 04:15 | 40.88167 | 14.28155 | 292 ft | 50 kts | 238° |
| 2026-04-29 04:15 | 40.88091 | 14.28028 | 299 ft | 5 kts | 169° |
| 2026-04-29 04:15 | 40.88064 | 14.28050 | 299 ft | 4 kts | 147° |
| 2026-04-29 04:15 | 40.88037 | 14.28073 | 300 ft | 5 kts | 147° |
| 2026-04-29 04:16 | 40.88003 | 14.28100 | 300 ft | 7 kts | 150° |
| 2026-04-29 04:16 | 40.87953 | 14.28104 | 302 ft | 8 kts | 203° |
| 2026-04-29 04:16 | 40.87917 | 14.28052 | 303 ft | 8 kts | 231° |
| 2026-04-29 04:16 | 40.87882 | 14.27995 | 304 ft | 8 kts | 231° |
| 2026-04-29 04:17 | 40.87845 | 14.27945 | 307 ft | 7 kts | 203° |
| 2026-04-29 04:17 | 40.87804 | 14.27978 | 305 ft | 8 kts | 140° |
| 2026-04-29 04:17 | 40.87777 | 14.28007 | 303 ft | 1 kts | 141° |
| 2026-04-29 04:17 | 40.87771 | 14.28013 | 303 ft | 0 kts | 141° |